sensor_id;sensor_type;location;lat;lon;timestamp;P1;durP1;ratioP1;P2;durP2;ratioP2
16892;SDS011;8563;52.242;9.098;2023-08-01T00:01:55;1.47;;;1.10;;
16892;SDS011;8563;52.242;9.098;2023-08-01T00:04:29;1.97;;;0.87;;
16892;SDS011;8563;52.242;9.098;2023-08-01T00:07:01;1.38;;;0.80;;
16892;SDS011;8563;52.242;9.098;2023-08-01T00:09:37;2.43;;;0.90;;
16892;SDS011;8563;52.242;9.098;2023-08-01T00:12:10;0.83;;;0.80;;
16892;SDS011;8563;52.242;9.098;2023-08-01T00:14:43;1.63;;;0.80;;
16892;SDS011;8563;52.242;9.098;2023-08-01T00:17:17;3.42;;;0.90;;
16892;SDS011;8563;52.242;9.098;2023-08-01T00:19:52;2.17;;;1.07;;
16892;SDS011;8563;52.242;9.098;2023-08-01T00:22:25;0.85;;;0.82;;
16892;SDS011;8563;52.242;9.098;2023-08-01T00:25:00;1.10;;;0.90;;
16892;SDS011;8563;52.242;9.098;2023-08-01T00:27:33;1.07;;;0.90;;
16892;SDS011;8563;52.242;9.098;2023-08-01T00:30:07;2.83;;;0.80;;
16892;SDS011;8563;52.242;9.098;2023-08-01T00:32:41;2.17;;;1.10;;
16892;SDS011;8563;52.242;9.098;2023-08-01T00:35:15;2.07;;;0.93;;
16892;SDS011;8563;52.242;9.098;2023-08-01T00:37:48;1.38;;;1.17;;
16892;SDS011;8563;52.242;9.098;2023-08-01T00:40:23;1.13;;;1.03;;
16892;SDS011;8563;52.242;9.098;2023-08-01T00:42:56;1.90;;;0.80;;
16892;SDS011;8563;52.242;9.098;2023-08-01T00:45:30;1.00;;;1.00;;
16892;SDS011;8563;52.242;9.098;2023-08-01T00:48:04;1.10;;;1.00;;
16892;SDS011;8563;52.242;9.098;2023-08-01T00:50:39;1.57;;;1.03;;
16892;SDS011;8563;52.242;9.098;2023-08-01T00:53:12;1.30;;;1.20;;
16892;SDS011;8563;52.242;9.098;2023-08-01T00:55:47;0.90;;;0.90;;
16892;SDS011;8563;52.242;9.098;2023-08-01T00:58:20;1.20;;;1.10;;
16892;SDS011;8563;52.242;9.098;2023-08-01T01:00:54;1.87;;;1.00;;
16892;SDS011;8563;52.242;9.098;2023-08-01T01:03:48;3.30;;;0.87;;
16892;SDS011;8563;52.242;9.098;2023-08-01T01:06:22;1.37;;;1.00;;
16892;SDS011;8563;52.242;9.098;2023-08-01T01:08:57;1.40;;;1.00;;
16892;SDS011;8563;52.242;9.098;2023-08-01T01:11:32;3.13;;;1.10;;
16892;SDS011;8563;52.242;9.098;2023-08-01T01:14:06;1.20;;;1.10;;
16892;SDS011;8563;52.242;9.098;2023-08-01T01:16:40;2.83;;;1.17;;
16892;SDS011;8563;52.242;9.098;2023-08-01T01:19:13;3.73;;;1.10;;
16892;SDS011;8563;52.242;9.098;2023-08-01T01:21:49;0.97;;;0.80;;
16892;SDS011;8563;52.242;9.098;2023-08-01T01:24:22;0.90;;;0.87;;
16892;SDS011;8563;52.242;9.098;2023-08-01T01:26:55;0.80;;;0.80;;
16892;SDS011;8563;52.242;9.098;2023-08-01T01:29:31;1.93;;;1.20;;
16892;SDS011;8563;52.242;9.098;2023-08-01T01:32:04;1.40;;;1.10;;
16892;SDS011;8563;52.242;9.098;2023-08-01T01:34:38;1.07;;;0.93;;
16892;SDS011;8563;52.242;9.098;2023-08-01T01:37:15;1.67;;;1.10;;
16892;SDS011;8563;52.242;9.098;2023-08-01T01:39:50;1.83;;;1.00;;
16892;SDS011;8563;52.242;9.098;2023-08-01T01:42:23;1.70;;;0.80;;
16892;SDS011;8563;52.242;9.098;2023-08-01T01:44:56;1.70;;;1.02;;
16892;SDS011;8563;52.242;9.098;2023-08-01T01:47:30;1.10;;;1.00;;
16892;SDS011;8563;52.242;9.098;2023-08-01T01:50:03;1.27;;;0.88;;
16892;SDS011;8563;52.242;9.098;2023-08-01T01:52:39;1.50;;;1.17;;
16892;SDS011;8563;52.242;9.098;2023-08-01T01:55:12;2.53;;;1.10;;
16892;SDS011;8563;52.242;9.098;2023-08-01T01:57:45;2.20;;;0.90;;
16892;SDS011;8563;52.242;9.098;2023-08-01T02:00:18;4.10;;;1.13;;
16892;SDS011;8563;52.242;9.098;2023-08-01T02:02:51;3.05;;;0.98;;
16892;SDS011;8563;52.242;9.098;2023-08-01T02:05:24;2.63;;;0.90;;
16892;SDS011;8563;52.242;9.098;2023-08-01T02:07:59;1.00;;;0.80;;
16892;SDS011;8563;52.242;9.098;2023-08-01T02:10:32;0.77;;;0.77;;
16892;SDS011;8563;52.242;9.098;2023-08-01T02:13:06;1.98;;;0.90;;
16892;SDS011;8563;52.242;9.098;2023-08-01T02:15:40;1.73;;;0.60;;
16892;SDS011;8563;52.242;9.098;2023-08-01T02:18:13;2.45;;;0.80;;
16892;SDS011;8563;52.242;9.098;2023-08-01T02:20:47;0.90;;;0.60;;
16892;SDS011;8563;52.242;9.098;2023-08-01T02:23:22;0.70;;;0.70;;
16892;SDS011;8563;52.242;9.098;2023-08-01T02:25:54;1.30;;;0.85;;
16892;SDS011;8563;52.242;9.098;2023-08-01T02:28:27;0.70;;;0.60;;
16892;SDS011;8563;52.242;9.098;2023-08-01T02:31:00;0.60;;;0.60;;
16892;SDS011;8563;52.242;9.098;2023-08-01T02:33:33;0.90;;;0.60;;
16892;SDS011;8563;52.242;9.098;2023-08-01T02:36:06;1.60;;;0.60;;
16892;SDS011;8563;52.242;9.098;2023-08-01T02:38:44;1.30;;;0.80;;
16892;SDS011;8563;52.242;9.098;2023-08-01T02:41:17;0.83;;;0.70;;
16892;SDS011;8563;52.242;9.098;2023-08-01T02:43:51;1.17;;;0.60;;
16892;SDS011;8563;52.242;9.098;2023-08-01T02:46:24;0.70;;;0.60;;
16892;SDS011;8563;52.242;9.098;2023-08-01T02:49:00;0.80;;;0.70;;
16892;SDS011;8563;52.242;9.098;2023-08-01T02:51:33;0.87;;;0.73;;
16892;SDS011;8563;52.242;9.098;2023-08-01T02:54:08;3.23;;;0.70;;
16892;SDS011;8563;52.242;9.098;2023-08-01T02:56:41;1.47;;;0.70;;
16892;SDS011;8563;52.242;9.098;2023-08-01T02:59:14;1.70;;;0.70;;
16892;SDS011;8563;52.242;9.098;2023-08-01T03:01:48;1.77;;;0.90;;
16892;SDS011;8563;52.242;9.098;2023-08-01T03:04:21;2.03;;;0.77;;
16892;SDS011;8563;52.242;9.098;2023-08-01T03:06:55;1.67;;;1.00;;
16892;SDS011;8563;52.242;9.098;2023-08-01T03:09:29;1.00;;;0.90;;
16892;SDS011;8563;52.242;9.098;2023-08-01T03:12:03;1.50;;;0.83;;
16892;SDS011;8563;52.242;9.098;2023-08-01T03:14:36;1.43;;;0.70;;
16892;SDS011;8563;52.242;9.098;2023-08-01T03:17:12;2.00;;;0.80;;
16892;SDS011;8563;52.242;9.098;2023-08-01T03:19:48;0.70;;;0.60;;
16892;SDS011;8563;52.242;9.098;2023-08-01T03:22:22;1.90;;;0.80;;
16892;SDS011;8563;52.242;9.098;2023-08-01T03:24:57;2.03;;;0.70;;
16892;SDS011;8563;52.242;9.098;2023-08-01T03:27:30;0.83;;;0.70;;
16892;SDS011;8563;52.242;9.098;2023-08-01T03:30:03;1.60;;;0.80;;
16892;SDS011;8563;52.242;9.098;2023-08-01T03:32:39;1.00;;;0.80;;
16892;SDS011;8563;52.242;9.098;2023-08-01T03:35:13;1.70;;;0.60;;
16892;SDS011;8563;52.242;9.098;2023-08-01T03:37:46;1.07;;;0.73;;
16892;SDS011;8563;52.242;9.098;2023-08-01T03:40:21;1.10;;;0.70;;
16892;SDS011;8563;52.242;9.098;2023-08-01T03:42:55;2.20;;;0.70;;
16892;SDS011;8563;52.242;9.098;2023-08-01T03:45:28;1.40;;;0.73;;
16892;SDS011;8563;52.242;9.098;2023-08-01T03:48:01;0.90;;;0.60;;
16892;SDS011;8563;52.242;9.098;2023-08-01T03:50:35;1.27;;;0.70;;
16892;SDS011;8563;52.242;9.098;2023-08-01T03:53:08;0.80;;;0.67;;
16892;SDS011;8563;52.242;9.098;2023-08-01T03:55:46;1.10;;;0.93;;
16892;SDS011;8563;52.242;9.098;2023-08-01T03:58:19;1.53;;;0.60;;
16892;SDS011;8563;52.242;9.098;2023-08-01T04:00:52;1.37;;;0.70;;
16892;SDS011;8563;52.242;9.098;2023-08-01T04:03:25;1.13;;;0.70;;
16892;SDS011;8563;52.242;9.098;2023-08-01T04:05:59;0.70;;;0.70;;
16892;SDS011;8563;52.242;9.098;2023-08-01T04:08:33;0.70;;;0.53;;
16892;SDS011;8563;52.242;9.098;2023-08-01T04:11:08;1.23;;;0.67;;
16892;SDS011;8563;52.242;9.098;2023-08-01T04:13:41;0.67;;;0.60;;
16892;SDS011;8563;52.242;9.098;2023-08-01T04:16:15;1.10;;;0.73;;
16892;SDS011;8563;52.242;9.098;2023-08-01T04:18:50;0.60;;;0.60;;
16892;SDS011;8563;52.242;9.098;2023-08-01T04:21:23;1.73;;;0.70;;
16892;SDS011;8563;52.242;9.098;2023-08-01T04:23:57;2.05;;;0.80;;
16892;SDS011;8563;52.242;9.098;2023-08-01T04:26:33;1.03;;;0.90;;
16892;SDS011;8563;52.242;9.098;2023-08-01T04:29:07;0.60;;;0.60;;
16892;SDS011;8563;52.242;9.098;2023-08-01T04:31:41;0.80;;;0.80;;
16892;SDS011;8563;52.242;9.098;2023-08-01T04:34:15;1.88;;;1.02;;
16892;SDS011;8563;52.242;9.098;2023-08-01T04:36:49;1.50;;;0.63;;
16892;SDS011;8563;52.242;9.098;2023-08-01T04:39:22;1.00;;;0.90;;
16892;SDS011;8563;52.242;9.098;2023-08-01T04:41:57;0.90;;;0.90;;
16892;SDS011;8563;52.242;9.098;2023-08-01T04:44:30;2.63;;;0.82;;
16892;SDS011;8563;52.242;9.098;2023-08-01T04:47:05;1.17;;;1.00;;
16892;SDS011;8563;52.242;9.098;2023-08-01T04:49:38;0.80;;;0.70;;
16892;SDS011;8563;52.242;9.098;2023-08-01T04:52:12;0.77;;;0.68;;
16892;SDS011;8563;52.242;9.098;2023-08-01T04:54:45;2.63;;;1.10;;
16892;SDS011;8563;52.242;9.098;2023-08-01T04:57:19;1.10;;;0.93;;
16892;SDS011;8563;52.242;9.098;2023-08-01T04:59:53;1.83;;;1.20;;
16892;SDS011;8563;52.242;9.098;2023-08-01T05:02:27;1.00;;;0.90;;
16892;SDS011;8563;52.242;9.098;2023-08-01T05:05:00;3.00;;;1.10;;
16892;SDS011;8563;52.242;9.098;2023-08-01T05:07:34;0.97;;;0.87;;
16892;SDS011;8563;52.242;9.098;2023-08-01T05:10:07;2.45;;;1.10;;
16892;SDS011;8563;52.242;9.098;2023-08-01T05:12:44;3.35;;;1.15;;
16892;SDS011;8563;52.242;9.098;2023-08-01T05:15:17;2.00;;;1.30;;
16892;SDS011;8563;52.242;9.098;2023-08-01T05:17:50;1.70;;;1.60;;
16892;SDS011;8563;52.242;9.098;2023-08-01T05:20:23;2.53;;;1.90;;
16892;SDS011;8563;52.242;9.098;2023-08-01T05:23:01;2.28;;;2.08;;
16892;SDS011;8563;52.242;9.098;2023-08-01T05:25:34;6.17;;;2.17;;
16892;SDS011;8563;52.242;9.098;2023-08-01T05:28:10;3.63;;;2.70;;
16892;SDS011;8563;52.242;9.098;2023-08-01T05:30:43;3.08;;;2.28;;
16892;SDS011;8563;52.242;9.098;2023-08-01T05:33:17;2.60;;;2.40;;
16892;SDS011;8563;52.242;9.098;2023-08-01T05:35:51;4.47;;;3.10;;
16892;SDS011;8563;52.242;9.098;2023-08-01T05:38:25;3.03;;;2.60;;
16892;SDS011;8563;52.242;9.098;2023-08-01T05:40:59;2.85;;;2.50;;
16892;SDS011;8563;52.242;9.098;2023-08-01T05:43:34;2.97;;;2.50;;
16892;SDS011;8563;52.242;9.098;2023-08-01T05:46:07;2.35;;;2.15;;
16892;SDS011;8563;52.242;9.098;2023-08-01T05:48:40;3.10;;;2.10;;
16892;SDS011;8563;52.242;9.098;2023-08-01T05:51:13;2.83;;;2.30;;
16892;SDS011;8563;52.242;9.098;2023-08-01T05:53:47;3.53;;;2.60;;
16892;SDS011;8563;52.242;9.098;2023-08-01T05:56:21;4.13;;;2.93;;
16892;SDS011;8563;52.242;9.098;2023-08-01T05:58:55;3.10;;;2.50;;
16892;SDS011;8563;52.242;9.098;2023-08-01T06:01:29;3.03;;;2.20;;
16892;SDS011;8563;52.242;9.098;2023-08-01T06:04:03;3.53;;;2.03;;
16892;SDS011;8563;52.242;9.098;2023-08-01T06:06:36;2.73;;;2.47;;
16892;SDS011;8563;52.242;9.098;2023-08-01T06:09:10;2.97;;;2.60;;
16892;SDS011;8563;52.242;9.098;2023-08-01T06:11:43;4.60;;;2.45;;
16892;SDS011;8563;52.242;9.098;2023-08-01T06:14:18;4.65;;;3.20;;
16892;SDS011;8563;52.242;9.098;2023-08-01T06:16:51;5.40;;;3.20;;
16892;SDS011;8563;52.242;9.098;2023-08-01T06:19:25;5.87;;;3.47;;
16892;SDS011;8563;52.242;9.098;2023-08-01T06:21:58;4.13;;;3.60;;
16892;SDS011;8563;52.242;9.098;2023-08-01T06:24:31;4.13;;;3.60;;
16892;SDS011;8563;52.242;9.098;2023-08-01T06:27:06;8.27;;;3.83;;
16892;SDS011;8563;52.242;9.098;2023-08-01T06:29:40;5.50;;;3.80;;
16892;SDS011;8563;52.242;9.098;2023-08-01T06:32:15;5.97;;;4.43;;
16892;SDS011;8563;52.242;9.098;2023-08-01T06:34:49;5.97;;;4.50;;
16892;SDS011;8563;52.242;9.098;2023-08-01T06:37:21;5.32;;;4.82;;
16892;SDS011;8563;52.242;9.098;2023-08-01T06:39:54;7.50;;;4.82;;
16892;SDS011;8563;52.242;9.098;2023-08-01T06:42:28;7.45;;;4.70;;
16892;SDS011;8563;52.242;9.098;2023-08-01T06:45:07;7.18;;;4.55;;
16892;SDS011;8563;52.242;9.098;2023-08-01T06:47:40;5.03;;;4.45;;
16892;SDS011;8563;52.242;9.098;2023-08-01T06:50:14;5.00;;;3.97;;
16892;SDS011;8563;52.242;9.098;2023-08-01T06:52:48;7.57;;;4.38;;
16892;SDS011;8563;52.242;9.098;2023-08-01T06:55:21;7.40;;;4.67;;
16892;SDS011;8563;52.242;9.098;2023-08-01T06:57:54;7.13;;;4.20;;
16892;SDS011;8563;52.242;9.098;2023-08-01T07:00:29;5.10;;;4.10;;
16892;SDS011;8563;52.242;9.098;2023-08-01T07:03:02;5.77;;;3.73;;
16892;SDS011;8563;52.242;9.098;2023-08-01T07:05:38;5.70;;;3.87;;
16892;SDS011;8563;52.242;9.098;2023-08-01T07:08:12;6.53;;;3.37;;
16892;SDS011;8563;52.242;9.098;2023-08-01T07:10:45;7.35;;;4.10;;
16892;SDS011;8563;52.242;9.098;2023-08-01T07:13:18;7.20;;;3.97;;
16892;SDS011;8563;52.242;9.098;2023-08-01T07:15:54;11.13;;;4.40;;
16892;SDS011;8563;52.242;9.098;2023-08-01T07:18:28;9.65;;;4.10;;
16892;SDS011;8563;52.242;9.098;2023-08-01T07:21:02;9.32;;;4.10;;
16892;SDS011;8563;52.242;9.098;2023-08-01T07:23:36;9.00;;;4.13;;
16892;SDS011;8563;52.242;9.098;2023-08-01T07:26:10;7.57;;;4.15;;
16892;SDS011;8563;52.242;9.098;2023-08-01T07:28:47;6.30;;;3.92;;
16892;SDS011;8563;52.242;9.098;2023-08-01T07:31:21;6.38;;;3.88;;
16892;SDS011;8563;52.242;9.098;2023-08-01T07:33:55;6.22;;;3.67;;
16892;SDS011;8563;52.242;9.098;2023-08-01T07:36:29;6.65;;;3.75;;
16892;SDS011;8563;52.242;9.098;2023-08-01T07:39:02;6.55;;;4.40;;
16892;SDS011;8563;52.242;9.098;2023-08-01T07:41:36;6.70;;;4.38;;
16892;SDS011;8563;52.242;9.098;2023-08-01T07:44:10;7.70;;;3.70;;
16892;SDS011;8563;52.242;9.098;2023-08-01T07:46:45;7.28;;;4.35;;
16892;SDS011;8563;52.242;9.098;2023-08-01T07:49:19;10.52;;;4.40;;
16892;SDS011;8563;52.242;9.098;2023-08-01T07:51:52;5.88;;;3.90;;
16892;SDS011;8563;52.242;9.098;2023-08-01T07:54:27;7.80;;;4.07;;
16892;SDS011;8563;52.242;9.098;2023-08-01T07:57:02;7.07;;;3.70;;
16892;SDS011;8563;52.242;9.098;2023-08-01T07:59:35;7.57;;;3.78;;
16892;SDS011;8563;52.242;9.098;2023-08-01T08:02:16;9.20;;;4.05;;
16892;SDS011;8563;52.242;9.098;2023-08-01T08:04:49;6.78;;;4.00;;
16892;SDS011;8563;52.242;9.098;2023-08-01T08:07:22;3.75;;;3.10;;
16892;SDS011;8563;52.242;9.098;2023-08-01T08:09:56;7.38;;;3.30;;
16892;SDS011;8563;52.242;9.098;2023-08-01T08:12:29;5.45;;;3.13;;
16892;SDS011;8563;52.242;9.098;2023-08-01T08:15:02;4.80;;;2.90;;
16892;SDS011;8563;52.242;9.098;2023-08-01T08:17:37;4.00;;;2.60;;
16892;SDS011;8563;52.242;9.098;2023-08-01T08:20:10;5.05;;;2.80;;
16892;SDS011;8563;52.242;9.098;2023-08-01T08:22:43;4.68;;;3.03;;
16892;SDS011;8563;52.242;9.098;2023-08-01T08:25:16;2.70;;;2.40;;
16892;SDS011;8563;52.242;9.098;2023-08-01T08:27:50;6.95;;;3.20;;
16892;SDS011;8563;52.242;9.098;2023-08-01T08:30:23;5.28;;;2.50;;
16892;SDS011;8563;52.242;9.098;2023-08-01T08:32:58;4.53;;;2.35;;
16892;SDS011;8563;52.242;9.098;2023-08-01T08:35:34;4.65;;;2.40;;
16892;SDS011;8563;52.242;9.098;2023-08-01T08:38:07;6.57;;;2.83;;
16892;SDS011;8563;52.242;9.098;2023-08-01T08:40:43;5.72;;;2.40;;
16892;SDS011;8563;52.242;9.098;2023-08-01T08:43:21;3.60;;;2.60;;
16892;SDS011;8563;52.242;9.098;2023-08-01T08:45:56;5.43;;;2.58;;
16892;SDS011;8563;52.242;9.098;2023-08-01T08:48:32;4.13;;;2.38;;
16892;SDS011;8563;52.242;9.098;2023-08-01T08:51:05;3.80;;;2.30;;
16892;SDS011;8563;52.242;9.098;2023-08-01T08:53:39;8.93;;;3.00;;
16892;SDS011;8563;52.242;9.098;2023-08-01T08:56:13;4.65;;;2.30;;
16892;SDS011;8563;52.242;9.098;2023-08-01T08:58:47;3.03;;;2.13;;
16892;SDS011;8563;52.242;9.098;2023-08-01T09:01:21;3.97;;;2.53;;
16892;SDS011;8563;52.242;9.098;2023-08-01T09:03:55;3.33;;;2.00;;
16892;SDS011;8563;52.242;9.098;2023-08-01T09:06:29;6.15;;;2.75;;
16892;SDS011;8563;52.242;9.098;2023-08-01T09:09:04;3.03;;;2.40;;
16892;SDS011;8563;52.242;9.098;2023-08-01T09:11:39;4.57;;;2.40;;
16892;SDS011;8563;52.242;9.098;2023-08-01T09:14:14;4.22;;;2.80;;
16892;SDS011;8563;52.242;9.098;2023-08-01T09:16:48;5.47;;;3.00;;
16892;SDS011;8563;52.242;9.098;2023-08-01T09:19:24;5.43;;;2.30;;
16892;SDS011;8563;52.242;9.098;2023-08-01T09:21:58;4.97;;;2.35;;
16892;SDS011;8563;52.242;9.098;2023-08-01T09:24:31;5.88;;;2.10;;
16892;SDS011;8563;52.242;9.098;2023-08-01T09:27:04;6.03;;;2.75;;
16892;SDS011;8563;52.242;9.098;2023-08-01T09:29:39;4.78;;;2.30;;
16892;SDS011;8563;52.242;9.098;2023-08-01T09:32:13;7.60;;;2.80;;
16892;SDS011;8563;52.242;9.098;2023-08-01T09:34:48;5.97;;;2.63;;
16892;SDS011;8563;52.242;9.098;2023-08-01T09:37:38;4.07;;;2.38;;
16892;SDS011;8563;52.242;9.098;2023-08-01T09:40:11;6.30;;;2.47;;
16892;SDS011;8563;52.242;9.098;2023-08-01T09:42:44;6.57;;;2.80;;
16892;SDS011;8563;52.242;9.098;2023-08-01T09:45:17;4.95;;;2.47;;
16892;SDS011;8563;52.242;9.098;2023-08-01T09:47:50;7.50;;;2.80;;
16892;SDS011;8563;52.242;9.098;2023-08-01T09:50:25;5.25;;;2.40;;
16892;SDS011;8563;52.242;9.098;2023-08-01T09:53:06;4.57;;;2.25;;
16892;SDS011;8563;52.242;9.098;2023-08-01T09:55:40;3.75;;;2.30;;
16892;SDS011;8563;52.242;9.098;2023-08-01T09:58:13;4.50;;;2.45;;
16892;SDS011;8563;52.242;9.098;2023-08-01T10:00:47;4.45;;;2.30;;
16892;SDS011;8563;52.242;9.098;2023-08-01T10:03:22;5.10;;;2.17;;
16892;SDS011;8563;52.242;9.098;2023-08-01T10:05:57;5.00;;;2.30;;
16892;SDS011;8563;52.242;9.098;2023-08-01T10:08:30;3.95;;;2.22;;
16892;SDS011;8563;52.242;9.098;2023-08-01T10:11:04;6.88;;;2.78;;
16892;SDS011;8563;52.242;9.098;2023-08-01T10:13:37;4.30;;;2.35;;
16892;SDS011;8563;52.242;9.098;2023-08-01T10:16:12;5.35;;;2.70;;
16892;SDS011;8563;52.242;9.098;2023-08-01T10:18:45;3.08;;;2.05;;
16892;SDS011;8563;52.242;9.098;2023-08-01T10:21:20;3.35;;;1.95;;
16892;SDS011;8563;52.242;9.098;2023-08-01T10:23:53;4.82;;;2.03;;
16892;SDS011;8563;52.242;9.098;2023-08-01T10:26:27;2.63;;;1.67;;
16892;SDS011;8563;52.242;9.098;2023-08-01T10:29:00;3.83;;;1.75;;
16892;SDS011;8563;52.242;9.098;2023-08-01T10:31:34;3.70;;;1.92;;
16892;SDS011;8563;52.242;9.098;2023-08-01T10:34:12;4.38;;;2.10;;
16892;SDS011;8563;52.242;9.098;2023-08-01T10:36:54;4.20;;;1.80;;
16892;SDS011;8563;52.242;9.098;2023-08-01T10:39:28;3.03;;;1.90;;
16892;SDS011;8563;52.242;9.098;2023-08-01T10:42:02;4.15;;;2.10;;
16892;SDS011;8563;52.242;9.098;2023-08-01T10:44:44;2.90;;;2.00;;
16892;SDS011;8563;52.242;9.098;2023-08-01T10:47:24;2.60;;;1.88;;
16892;SDS011;8563;52.242;9.098;2023-08-01T10:49:58;4.38;;;2.60;;
16892;SDS011;8563;52.242;9.098;2023-08-01T10:52:32;4.28;;;2.03;;
16892;SDS011;8563;52.242;9.098;2023-08-01T10:55:06;3.30;;;1.90;;
16892;SDS011;8563;52.242;9.098;2023-08-01T10:57:46;2.85;;;2.30;;
16892;SDS011;8563;52.242;9.098;2023-08-01T11:00:19;3.60;;;1.83;;
16892;SDS011;8563;52.242;9.098;2023-08-01T11:02:53;3.08;;;2.05;;
16892;SDS011;8563;52.242;9.098;2023-08-01T11:05:26;1.75;;;1.65;;
16892;SDS011;8563;52.242;9.098;2023-08-01T11:08:02;3.30;;;2.25;;
16892;SDS011;8563;52.242;9.098;2023-08-01T11:10:36;3.17;;;1.90;;
16892;SDS011;8563;52.242;9.098;2023-08-01T11:13:11;1.80;;;1.63;;
16892;SDS011;8563;52.242;9.098;2023-08-01T11:15:46;2.97;;;1.90;;
16892;SDS011;8563;52.242;9.098;2023-08-01T11:18:19;2.38;;;1.85;;
16892;SDS011;8563;52.242;9.098;2023-08-01T11:20:52;4.82;;;2.35;;
16892;SDS011;8563;52.242;9.098;2023-08-01T11:23:30;3.63;;;2.58;;
16892;SDS011;8563;52.242;9.098;2023-08-01T11:26:06;4.53;;;2.20;;
16892;SDS011;8563;52.242;9.098;2023-08-01T11:28:39;4.45;;;2.45;;
16892;SDS011;8563;52.242;9.098;2023-08-01T11:31:13;5.28;;;2.85;;
16892;SDS011;8563;52.242;9.098;2023-08-01T11:33:54;4.60;;;2.95;;
16892;SDS011;8563;52.242;9.098;2023-08-01T11:36:28;2.63;;;2.33;;
16892;SDS011;8563;52.242;9.098;2023-08-01T11:39:03;3.67;;;2.42;;
16892;SDS011;8563;52.242;9.098;2023-08-01T11:41:35;6.05;;;3.28;;
16892;SDS011;8563;52.242;9.098;2023-08-01T11:44:09;4.43;;;3.00;;
16892;SDS011;8563;52.242;9.098;2023-08-01T11:46:43;5.82;;;3.25;;
16892;SDS011;8563;52.242;9.098;2023-08-01T11:49:17;5.53;;;3.20;;
16892;SDS011;8563;52.242;9.098;2023-08-01T11:51:51;4.07;;;3.30;;
16892;SDS011;8563;52.242;9.098;2023-08-01T11:54:27;5.82;;;3.17;;
16892;SDS011;8563;52.242;9.098;2023-08-01T11:57:00;4.38;;;2.97;;
16892;SDS011;8563;52.242;9.098;2023-08-01T11:59:34;4.75;;;3.00;;
16892;SDS011;8563;52.242;9.098;2023-08-01T12:02:08;4.35;;;2.83;;
16892;SDS011;8563;52.242;9.098;2023-08-01T12:04:45;4.28;;;3.05;;
16892;SDS011;8563;52.242;9.098;2023-08-01T12:07:18;3.17;;;2.50;;
16892;SDS011;8563;52.242;9.098;2023-08-01T12:09:57;3.25;;;2.22;;
16892;SDS011;8563;52.242;9.098;2023-08-01T12:12:30;3.42;;;2.30;;
16892;SDS011;8563;52.242;9.098;2023-08-01T12:15:04;3.63;;;2.05;;
16892;SDS011;8563;52.242;9.098;2023-08-01T12:17:37;4.00;;;2.00;;
16892;SDS011;8563;52.242;9.098;2023-08-01T12:20:11;3.20;;;1.80;;
16892;SDS011;8563;52.242;9.098;2023-08-01T12:22:44;4.72;;;2.08;;
16892;SDS011;8563;52.242;9.098;2023-08-01T12:25:19;4.90;;;2.40;;
16892;SDS011;8563;52.242;9.098;2023-08-01T12:27:53;3.67;;;1.90;;
16892;SDS011;8563;52.242;9.098;2023-08-01T12:30:26;3.00;;;2.00;;
16892;SDS011;8563;52.242;9.098;2023-08-01T12:32:59;2.92;;;2.15;;
16892;SDS011;8563;52.242;9.098;2023-08-01T12:35:33;4.18;;;2.05;;
16892;SDS011;8563;52.242;9.098;2023-08-01T12:38:07;5.15;;;2.47;;
16892;SDS011;8563;52.242;9.098;2023-08-01T12:40:42;5.72;;;2.00;;
16892;SDS011;8563;52.242;9.098;2023-08-01T12:43:15;5.30;;;2.20;;
16892;SDS011;8563;52.242;9.098;2023-08-01T12:45:48;4.60;;;2.55;;
16892;SDS011;8563;52.242;9.098;2023-08-01T12:48:21;3.65;;;2.17;;
16892;SDS011;8563;52.242;9.098;2023-08-01T12:50:55;2.58;;;2.05;;
16892;SDS011;8563;52.242;9.098;2023-08-01T12:53:28;2.70;;;2.25;;
16892;SDS011;8563;52.242;9.098;2023-08-01T12:56:08;3.92;;;2.22;;
16892;SDS011;8563;52.242;9.098;2023-08-01T12:58:42;2.90;;;2.20;;
16892;SDS011;8563;52.242;9.098;2023-08-01T13:01:16;7.93;;;3.13;;
16892;SDS011;8563;52.242;9.098;2023-08-01T13:03:49;9.13;;;3.70;;
16892;SDS011;8563;52.242;9.098;2023-08-01T13:06:22;4.75;;;2.92;;
16892;SDS011;8563;52.242;9.098;2023-08-01T13:08:55;5.90;;;2.72;;
16892;SDS011;8563;52.242;9.098;2023-08-01T13:11:31;4.13;;;2.58;;
16892;SDS011;8563;52.242;9.098;2023-08-01T13:14:04;4.18;;;2.35;;
16892;SDS011;8563;52.242;9.098;2023-08-01T13:16:37;3.50;;;2.20;;
16892;SDS011;8563;52.242;9.098;2023-08-01T13:19:10;3.75;;;2.10;;
16892;SDS011;8563;52.242;9.098;2023-08-01T13:21:43;3.80;;;1.70;;
16892;SDS011;8563;52.242;9.098;2023-08-01T13:24:17;2.10;;;1.45;;
16892;SDS011;8563;52.242;9.098;2023-08-01T13:26:52;3.47;;;1.83;;
16892;SDS011;8563;52.242;9.098;2023-08-01T13:29:26;3.67;;;1.63;;
16892;SDS011;8563;52.242;9.098;2023-08-01T13:32:00;2.75;;;1.35;;
16892;SDS011;8563;52.242;9.098;2023-08-01T13:34:32;2.55;;;1.50;;
16892;SDS011;8563;52.242;9.098;2023-08-01T13:37:05;3.30;;;1.30;;
16892;SDS011;8563;52.242;9.098;2023-08-01T13:39:39;2.65;;;1.38;;
16892;SDS011;8563;52.242;9.098;2023-08-01T13:42:15;2.42;;;1.25;;
16892;SDS011;8563;52.242;9.098;2023-08-01T13:44:49;1.45;;;1.08;;
16892;SDS011;8563;52.242;9.098;2023-08-01T13:47:25;3.35;;;1.27;;
16892;SDS011;8563;52.242;9.098;2023-08-01T13:49:58;4.22;;;1.20;;
16892;SDS011;8563;52.242;9.098;2023-08-01T13:52:31;2.47;;;1.23;;
16892;SDS011;8563;52.242;9.098;2023-08-01T13:55:05;3.08;;;1.38;;
16892;SDS011;8563;52.242;9.098;2023-08-01T13:57:39;1.70;;;1.00;;
16892;SDS011;8563;52.242;9.098;2023-08-01T14:00:14;1.80;;;1.10;;
16892;SDS011;8563;52.242;9.098;2023-08-01T14:02:49;3.05;;;1.27;;
16892;SDS011;8563;52.242;9.098;2023-08-01T14:05:22;2.15;;;1.08;;
16892;SDS011;8563;52.242;9.098;2023-08-01T14:07:58;3.13;;;1.52;;
16892;SDS011;8563;52.242;9.098;2023-08-01T14:10:32;3.13;;;1.02;;
16892;SDS011;8563;52.242;9.098;2023-08-01T14:13:09;4.05;;;1.10;;
16892;SDS011;8563;52.242;9.098;2023-08-01T14:15:43;3.45;;;1.10;;
16892;SDS011;8563;52.242;9.098;2023-08-01T14:18:16;1.83;;;1.17;;
16892;SDS011;8563;52.242;9.098;2023-08-01T14:20:51;2.47;;;1.00;;
16892;SDS011;8563;52.242;9.098;2023-08-01T14:23:25;1.80;;;0.90;;
16892;SDS011;8563;52.242;9.098;2023-08-01T14:25:58;3.10;;;1.27;;
16892;SDS011;8563;52.242;9.098;2023-08-01T14:28:33;2.95;;;1.10;;
16892;SDS011;8563;52.242;9.098;2023-08-01T14:31:06;2.40;;;1.30;;
16892;SDS011;8563;52.242;9.098;2023-08-01T14:33:39;3.55;;;1.38;;
16892;SDS011;8563;52.242;9.098;2023-08-01T14:36:13;5.15;;;1.17;;
16892;SDS011;8563;52.242;9.098;2023-08-01T14:38:47;4.78;;;1.27;;
16892;SDS011;8563;52.242;9.098;2023-08-01T14:41:25;2.28;;;1.35;;
16892;SDS011;8563;52.242;9.098;2023-08-01T14:44:05;3.22;;;1.38;;
16892;SDS011;8563;52.242;9.098;2023-08-01T14:46:38;3.25;;;1.25;;
16892;SDS011;8563;52.242;9.098;2023-08-01T14:49:12;1.30;;;1.10;;
16892;SDS011;8563;52.242;9.098;2023-08-01T14:51:45;2.30;;;1.20;;
16892;SDS011;8563;52.242;9.098;2023-08-01T14:54:19;2.50;;;1.20;;
16892;SDS011;8563;52.242;9.098;2023-08-01T14:56:53;3.17;;;1.15;;
16892;SDS011;8563;52.242;9.098;2023-08-01T14:59:28;2.17;;;1.17;;
16892;SDS011;8563;52.242;9.098;2023-08-01T15:02:01;2.38;;;1.20;;
16892;SDS011;8563;52.242;9.098;2023-08-01T15:04:34;2.85;;;1.10;;
16892;SDS011;8563;52.242;9.098;2023-08-01T15:07:07;2.78;;;1.10;;
16892;SDS011;8563;52.242;9.098;2023-08-01T15:09:41;2.55;;;1.00;;
16892;SDS011;8563;52.242;9.098;2023-08-01T15:12:15;1.50;;;1.13;;
16892;SDS011;8563;52.242;9.098;2023-08-01T15:14:56;4.60;;;1.58;;
16892;SDS011;8563;52.242;9.098;2023-08-01T15:17:45;2.60;;;1.33;;
16892;SDS011;8563;52.242;9.098;2023-08-01T15:20:19;2.00;;;1.10;;
16892;SDS011;8563;52.242;9.098;2023-08-01T15:22:52;1.95;;;1.00;;
16892;SDS011;8563;52.242;9.098;2023-08-01T15:25:25;1.40;;;1.00;;
16892;SDS011;8563;52.242;9.098;2023-08-01T15:27:58;1.67;;;0.90;;
16892;SDS011;8563;52.242;9.098;2023-08-01T15:30:33;3.13;;;1.38;;
16892;SDS011;8563;52.242;9.098;2023-08-01T15:33:07;3.03;;;1.48;;
16892;SDS011;8563;52.242;9.098;2023-08-01T15:35:40;1.67;;;1.10;;
16892;SDS011;8563;52.242;9.098;2023-08-01T15:38:15;3.00;;;1.45;;
16892;SDS011;8563;52.242;9.098;2023-08-01T15:40:48;3.30;;;1.50;;
16892;SDS011;8563;52.242;9.098;2023-08-01T15:43:23;4.90;;;1.45;;